createdAt,value
2018-06-13T00:00:42.343Z,4.17
2018-06-13T00:03:10.656Z,3.47
2018-06-13T00:05:39.177Z,3.70
2018-06-13T00:08:07.607Z,3.77
2018-06-13T00:10:36.083Z,3.50
2018-06-13T00:13:04.444Z,4.50
2018-06-13T00:15:32.849Z,4.00
2018-06-13T00:18:01.229Z,4.13
2018-06-13T00:20:29.576Z,3.90
2018-06-13T00:22:57.969Z,3.80
2018-06-13T00:25:26.361Z,4.30
2018-06-13T00:27:55.732Z,4.40
2018-06-13T00:30:24.044Z,4.50
2018-06-13T00:32:53.404Z,3.77
2018-06-13T00:35:21.732Z,3.77
2018-06-13T00:37:50.205Z,3.70
2018-06-13T00:40:18.551Z,4.53
2018-06-13T00:42:47.008Z,4.00
2018-06-13T00:45:15.367Z,4.27
2018-06-13T00:47:43.729Z,4.33
2018-06-13T00:50:12.097Z,4.53
2018-06-13T00:52:40.421Z,4.30
2018-06-13T00:55:08.789Z,4.20
2018-06-13T00:57:37.144Z,4.10
2018-06-13T01:00:05.508Z,3.93
2018-06-13T01:02:33.873Z,4.70
2018-06-13T01:05:02.225Z,3.90
2018-06-13T01:07:30.598Z,4.07
2018-06-13T01:09:58.968Z,4.20
2018-06-13T01:12:27.283Z,4.03
2018-06-13T01:14:55.594Z,4.00
2018-06-13T01:17:24.827Z,3.70
2018-06-13T01:19:54.013Z,4.07
2018-06-13T01:22:23.229Z,4.80
2018-06-13T01:24:52.412Z,4.30
2018-06-13T01:27:21.712Z,4.73
2018-06-13T01:29:50.912Z,4.27
2018-06-13T01:32:19.256Z,5.00
2018-06-13T01:34:47.633Z,4.10
2018-06-13T01:37:15.993Z,6.50
2018-06-13T01:39:45.320Z,5.53
2018-06-13T01:42:13.700Z,5.60
2018-06-13T01:44:42.945Z,6.20
2018-06-13T01:47:12.269Z,5.70
2018-06-13T01:49:40.580Z,5.73
2018-06-13T01:52:09.076Z,6.50
2018-06-13T01:54:37.540Z,4.63
2018-06-13T01:57:05.848Z,5.40
2018-06-13T01:59:34.156Z,5.13
2018-06-13T02:02:02.458Z,5.60
2018-06-13T02:04:30.768Z,6.37
2018-06-13T02:06:59.072Z,4.20
2018-06-13T02:09:27.413Z,5.00
2018-06-13T02:11:55.804Z,4.33
2018-06-13T02:14:24.181Z,4.47
2018-06-13T02:16:52.561Z,4.70
2018-06-13T02:19:20.860Z,3.97
2018-06-13T02:21:50.056Z,4.53
2018-06-13T02:24:18.395Z,3.70
2018-06-13T02:26:46.693Z,3.37
2018-06-13T02:29:15.825Z,3.90
2018-06-13T02:31:44.133Z,3.40
2018-06-13T02:34:12.454Z,3.53
2018-06-13T02:36:41.656Z,3.50
2018-06-13T02:39:10.021Z,2.97
2018-06-13T02:41:39.333Z,3.07
2018-06-13T02:44:07.700Z,2.90
2018-06-13T02:46:36.008Z,2.60
2018-06-13T02:49:05.388Z,3.20
2018-06-13T02:51:34.761Z,2.80
2018-06-13T02:54:03.117Z,3.10
2018-06-13T02:56:31.446Z,2.70
2018-06-13T02:58:59.817Z,3.20
2018-06-13T03:01:28.200Z,2.50
2018-06-13T03:03:56.508Z,3.07
2018-06-13T03:06:24.808Z,3.13
2018-06-13T03:08:53.112Z,3.20
2018-06-13T03:11:21.412Z,2.73
2018-06-13T03:13:49.799Z,2.80
2018-06-13T03:16:18.112Z,3.60
2018-06-13T03:18:46.455Z,3.50
2018-06-13T03:21:14.766Z,3.57
2018-06-13T03:23:43.160Z,3.47
2018-06-13T03:26:12.980Z,3.30
2018-06-13T03:28:41.316Z,3.00
2018-06-13T03:31:09.712Z,3.97
2018-06-13T03:33:39.089Z,2.80
2018-06-13T03:36:07.480Z,3.20
2018-06-13T03:38:35.847Z,2.73
2018-06-13T03:41:04.208Z,3.40
2018-06-13T03:43:33.364Z,3.00
2018-06-13T03:46:01.707Z,2.50
2018-06-13T03:48:30.026Z,3.20
2018-06-13T03:50:58.332Z,2.80
2018-06-13T03:53:26.637Z,2.77
2018-06-13T03:55:55.121Z,3.70
2018-06-13T03:58:24.424Z,3.20
2018-06-13T04:00:53.741Z,2.87
2018-06-13T04:03:22.044Z,2.97
2018-06-13T04:05:51.220Z,2.90
2018-06-13T04:08:20.417Z,2.80
2018-06-13T04:10:49.585Z,2.50
2018-06-13T04:13:17.893Z,2.60
2018-06-13T04:15:47.090Z,2.90
2018-06-13T04:18:16.294Z,2.60
2018-06-13T04:20:44.596Z,2.40
2018-06-13T04:23:12.900Z,3.00
2018-06-13T04:25:41.321Z,2.63
2018-06-13T04:28:10.544Z,2.70
2018-06-13T04:30:39.020Z,3.10
2018-06-13T04:33:07.480Z,2.33
2018-06-13T04:35:35.788Z,2.50
2018-06-13T04:38:04.141Z,2.60
2018-06-13T04:40:32.489Z,3.47
2018-06-13T04:43:07.584Z,3.33
2018-06-13T04:45:35.899Z,2.43
2018-06-13T04:48:05.196Z,2.33
2018-06-13T04:50:33.502Z,2.53
2018-06-13T04:53:01.804Z,3.23
2018-06-13T04:55:30.128Z,3.00
2018-06-13T04:57:58.572Z,2.80
2018-06-13T05:00:26.924Z,2.70
2018-06-13T05:02:55.338Z,2.77
2018-06-13T05:05:24.641Z,3.00
2018-06-13T05:07:52.959Z,2.43
2018-06-13T05:10:21.313Z,2.70
2018-06-13T05:12:49.616Z,2.73
2018-06-13T05:15:17.961Z,3.07
2018-06-13T05:17:46.276Z,2.93
2018-06-13T05:20:14.710Z,3.37
2018-06-13T05:22:43.954Z,3.57
2018-06-13T05:25:13.411Z,3.03
2018-06-13T05:27:41.715Z,3.00
2018-06-13T05:30:10.074Z,3.53
2018-06-13T05:32:38.376Z,3.73
2018-06-13T05:35:06.712Z,3.23
2018-06-13T05:37:35.009Z,2.90
2018-06-13T05:40:04.402Z,3.23
2018-06-13T05:42:33.668Z,3.37
2018-06-13T05:45:02.969Z,3.50
2018-06-13T05:47:32.173Z,2.70
2018-06-13T05:50:00.556Z,3.33
2018-06-13T05:52:28.933Z,2.83
2018-06-13T05:54:57.455Z,2.83
2018-06-13T05:57:25.753Z,2.97
2018-06-13T05:59:54.994Z,2.87
2018-06-13T06:02:23.318Z,3.00
2018-06-13T06:04:51.641Z,3.47
2018-06-13T06:07:19.968Z,3.53
2018-06-13T06:09:48.288Z,2.90
2018-06-13T06:12:17.168Z,2.40
2018-06-13T06:14:45.734Z,2.30
2018-06-13T06:17:14.381Z,2.57
2018-06-13T06:19:42.724Z,3.00
2018-06-13T06:22:11.097Z,2.47
2018-06-13T06:24:40.272Z,2.60
2018-06-13T06:27:09.417Z,2.90
2018-06-13T06:29:38.668Z,3.30
2018-06-13T06:32:07.048Z,3.77
2018-06-13T06:34:35.381Z,3.13
2018-06-13T06:37:03.788Z,3.03
2018-06-13T06:39:33.069Z,2.30
2018-06-13T06:42:01.425Z,2.60
2018-06-13T06:44:30.746Z,3.40
2018-06-13T06:47:00.121Z,2.90
2018-06-13T06:49:29.453Z,2.90
2018-06-13T06:51:58.752Z,2.80
2018-06-13T06:54:27.990Z,3.20
2018-06-13T06:56:57.224Z,3.10
2018-06-13T06:59:25.568Z,2.60
2018-06-13T07:01:54.901Z,2.60
2018-06-13T07:04:24.236Z,2.80
2018-06-13T07:06:53.635Z,3.33
2018-06-13T07:09:22.809Z,2.97
2018-06-13T07:11:52.018Z,2.30
2018-06-13T07:14:21.437Z,2.63
2018-06-13T07:16:50.758Z,4.50
2018-06-13T07:19:20.206Z,2.97
2018-06-13T07:21:49.445Z,3.13
2018-06-13T07:24:18.664Z,3.03
2018-06-13T07:26:46.988Z,2.80
2018-06-13T07:29:15.375Z,2.63
2018-06-13T07:31:46.117Z,2.50
2018-06-13T07:34:14.480Z,3.13
2018-06-13T07:36:42.792Z,3.40
2018-06-13T07:39:11.102Z,3.10
2018-06-13T07:41:39.412Z,2.87
2018-06-13T07:44:07.741Z,2.90
2018-06-13T07:46:36.246Z,3.87
2018-06-13T07:49:04.560Z,3.07
2018-06-13T07:51:32.897Z,2.53
2018-06-13T07:54:01.212Z,3.47
2018-06-13T07:56:29.560Z,2.40
2018-06-13T07:58:57.881Z,3.17
2018-06-13T08:01:26.196Z,2.87
2018-06-13T08:03:55.510Z,2.70
2018-06-13T08:06:23.818Z,2.80
2018-06-13T08:08:52.158Z,2.97
2018-06-13T08:11:20.469Z,2.80
2018-06-13T08:13:48.777Z,3.57
2018-06-13T08:16:17.113Z,2.40
2018-06-13T08:18:45.941Z,2.70
2018-06-13T08:21:14.389Z,2.87
2018-06-13T08:23:42.700Z,2.50
2018-06-13T08:26:11.071Z,3.00
2018-06-13T08:28:39.437Z,2.43
2018-06-13T08:31:07.865Z,2.57
2018-06-13T08:33:36.233Z,2.73
2018-06-13T08:36:04.680Z,2.70
2018-06-13T08:38:33.073Z,2.80
2018-06-13T08:41:01.393Z,2.47
2018-06-13T08:43:31.730Z,3.10
2018-06-13T08:46:00.041Z,2.50
2018-06-13T08:48:42.687Z,2.93
2018-06-13T08:51:11.095Z,2.67
2018-06-13T08:53:39.452Z,2.60
2018-06-13T08:56:07.773Z,2.70
2018-06-13T08:58:36.128Z,2.83
2018-06-13T09:01:05.340Z,2.50
2018-06-13T09:03:34.633Z,2.80
2018-06-13T09:06:03.813Z,2.40
2018-06-13T09:08:32.132Z,2.33
2018-06-13T09:11:00.445Z,2.23
2018-06-13T09:13:28.864Z,1.90
2018-06-13T09:15:57.184Z,1.60
2018-06-13T09:18:25.520Z,2.00
2018-06-13T09:20:53.840Z,1.83
2018-06-13T09:23:22.153Z,2.07
2018-06-13T09:25:50.458Z,1.77
2018-06-13T09:28:19.701Z,1.50
2018-06-13T09:30:48.016Z,1.97
2018-06-13T09:33:16.320Z,1.87
2018-06-13T09:35:44.629Z,1.90
2018-06-13T09:38:12.949Z,1.80
2018-06-13T09:40:41.351Z,2.10
2018-06-13T09:43:09.692Z,2.00
2018-06-13T09:45:44.542Z,1.60
2018-06-13T09:48:13.967Z,2.00
2018-06-13T09:50:43.162Z,2.20
2018-06-13T09:53:11.505Z,2.00
2018-06-13T09:55:39.818Z,1.73
2018-06-13T09:58:08.158Z,1.40
2018-06-13T10:00:41.771Z,1.60
2018-06-13T10:03:10.192Z,2.77
2018-06-13T10:05:38.557Z,1.60
2018-06-13T10:08:06.943Z,1.70
2018-06-13T10:10:35.309Z,1.70
2018-06-13T10:13:03.632Z,1.53
2018-06-13T10:15:31.960Z,1.20
2018-06-13T10:18:00.373Z,1.70
2018-06-13T10:20:28.685Z,1.50
2018-06-13T10:22:57.013Z,1.57
2018-06-13T10:25:25.366Z,1.50
2018-06-13T10:27:53.749Z,1.20
2018-06-13T10:30:22.196Z,1.70
2018-06-13T10:32:50.531Z,1.40
2018-06-13T10:35:18.861Z,1.73
2018-06-13T10:37:47.168Z,1.20
2018-06-13T10:40:15.561Z,1.20
2018-06-13T10:42:43.876Z,1.47
2018-06-13T10:45:12.189Z,1.73
2018-06-13T10:47:40.611Z,1.87
2018-06-13T10:50:09.801Z,1.50
2018-06-13T10:52:38.149Z,1.17
2018-06-13T10:55:06.667Z,1.03
2018-06-13T10:57:35.005Z,1.50
2018-06-13T11:00:03.321Z,1.17
2018-06-13T11:02:31.625Z,1.20
2018-06-13T11:04:59.936Z,1.30
2018-06-13T11:07:28.260Z,1.00
2018-06-13T11:09:56.645Z,1.00
2018-06-13T11:12:25.018Z,1.40
2018-06-13T11:14:53.393Z,0.90
2018-06-13T11:17:21.780Z,1.03
2018-06-13T11:19:50.157Z,1.57
2018-06-13T11:22:18.460Z,1.13
2018-06-13T11:24:46.828Z,1.20
2018-06-13T11:27:15.144Z,1.13
2018-06-13T11:29:43.474Z,1.23
2018-06-13T11:32:11.793Z,1.20
2018-06-13T11:34:40.109Z,1.00
2018-06-13T11:37:08.434Z,1.17
2018-06-13T11:39:37.701Z,1.20
2018-06-13T11:42:06.087Z,1.40
2018-06-13T11:44:34.468Z,0.90
2018-06-13T11:47:02.934Z,1.07
2018-06-13T11:49:31.261Z,1.40
2018-06-13T11:51:59.581Z,1.07
2018-06-13T11:54:27.981Z,1.10
2018-06-13T11:56:56.285Z,1.17
2018-06-13T11:59:25.472Z,1.20
2018-06-13T12:01:54.821Z,1.30
2018-06-13T12:04:24.142Z,1.17
2018-06-13T12:06:53.589Z,1.30
2018-06-13T12:09:22.809Z,1.60
2018-06-13T12:11:52.124Z,1.70
2018-06-13T12:14:21.301Z,1.10
2018-06-13T12:16:50.521Z,1.00
2018-06-13T12:19:19.749Z,1.40
2018-06-13T12:21:49.096Z,1.37
2018-06-13T12:24:18.440Z,1.70
2018-06-13T12:26:47.716Z,1.53
2018-06-13T12:29:17.097Z,1.43
2018-06-13T12:31:46.401Z,1.40
2018-06-13T12:34:15.584Z,1.37
2018-06-13T12:36:44.856Z,1.90
2018-06-13T12:39:13.172Z,1.80
2018-06-13T12:41:41.517Z,1.50
2018-06-13T12:44:10.692Z,1.50
2018-06-13T12:46:39.920Z,1.30
2018-06-13T12:49:08.261Z,1.40
2018-06-13T12:51:36.608Z,1.50
2018-06-13T12:54:04.917Z,1.67
2018-06-13T12:56:34.269Z,2.10
2018-06-13T12:59:02.721Z,1.30
2018-06-13T13:01:31.885Z,1.37
2018-06-13T13:04:01.225Z,1.60
2018-06-13T13:06:30.404Z,1.20
2018-06-13T13:08:58.766Z,1.37
2018-06-13T13:11:27.219Z,1.50
2018-06-13T13:13:56.550Z,1.70
2018-06-13T13:16:24.891Z,1.37
2018-06-13T13:18:53.276Z,1.63
2018-06-13T13:21:21.685Z,1.73
2018-06-13T13:23:50.069Z,1.77
2018-06-13T13:26:18.429Z,1.70
2018-06-13T13:28:46.813Z,2.40
2018-06-13T13:31:15.993Z,1.53
2018-06-13T13:33:44.336Z,1.60
2018-06-13T13:36:12.637Z,1.60
2018-06-13T13:38:40.969Z,1.80
2018-06-13T13:41:09.377Z,1.37
2018-06-13T13:43:37.729Z,1.50
2018-06-13T13:46:06.052Z,1.50
2018-06-13T13:48:35.438Z,1.70
2018-06-13T13:51:04.620Z,1.80
2018-06-13T13:53:33.058Z,1.80
2018-06-13T13:56:01.457Z,1.70
2018-06-13T13:58:29.847Z,1.00
2018-06-13T14:00:58.156Z,1.17
2018-06-13T14:03:26.465Z,1.80
2018-06-13T14:05:54.824Z,1.90
2018-06-13T14:08:23.137Z,1.33
2018-06-13T14:10:52.281Z,1.27
2018-06-13T14:13:20.596Z,2.10
2018-06-13T14:15:48.907Z,2.00
2018-06-13T14:18:18.252Z,1.70
2018-06-13T14:20:46.577Z,1.63
2018-06-13T14:23:14.876Z,1.30
2018-06-13T14:25:43.189Z,1.43
2018-06-13T14:28:12.524Z,1.67
2018-06-13T14:30:42.629Z,1.30
2018-06-13T14:33:11.968Z,1.60
2018-06-13T14:35:40.348Z,2.03
2018-06-13T14:38:08.724Z,2.07
2018-06-13T14:40:37.119Z,2.00
2018-06-13T14:43:07.613Z,1.67
2018-06-13T14:45:36.942Z,1.23
2018-06-13T14:48:05.261Z,1.40
2018-06-13T14:50:34.481Z,1.70
2018-06-13T14:53:02.908Z,1.60
2018-06-13T14:55:36.340Z,1.67
2018-06-13T14:58:05.697Z,1.93
2018-06-13T15:00:34.965Z,1.60
2018-06-13T15:03:04.177Z,1.67
2018-06-13T15:05:32.541Z,1.70
2018-06-13T15:08:01.031Z,1.60
2018-06-13T15:10:29.360Z,1.60
2018-06-13T15:12:57.698Z,1.50
2018-06-13T15:15:26.913Z,1.60
2018-06-13T15:17:55.276Z,1.47
2018-06-13T15:20:24.541Z,1.70
2018-06-13T15:22:53.909Z,1.87
2018-06-13T15:25:23.132Z,1.60
2018-06-13T15:27:52.649Z,1.43
2018-06-13T15:30:20.956Z,3.90
2018-06-13T15:32:50.298Z,1.80
2018-06-13T15:35:19.582Z,1.60
2018-06-13T15:37:48.005Z,2.17
2018-06-13T15:40:17.276Z,1.80
2018-06-13T15:42:46.499Z,2.07
2018-06-13T15:45:14.829Z,1.60
2018-06-13T15:47:43.141Z,1.63
2018-06-13T15:50:11.493Z,1.70
2018-06-13T15:52:40.749Z,1.63
2018-06-13T15:55:10.034Z,1.90
2018-06-13T15:57:38.509Z,2.17
2018-06-13T16:00:08.958Z,2.03
2018-06-13T16:02:37.326Z,1.70
2018-06-13T16:05:05.913Z,1.63
2018-06-13T16:07:34.236Z,1.40
2018-06-13T16:10:02.546Z,1.47
2018-06-13T16:12:30.869Z,1.80
2018-06-13T16:15:00.281Z,1.80
2018-06-13T16:17:29.473Z,1.77
2018-06-13T16:19:57.805Z,1.93
2018-06-13T16:22:26.178Z,1.43
2018-06-13T16:24:54.484Z,2.50
2018-06-13T16:27:23.851Z,1.67
2018-06-13T16:29:53.163Z,1.80
2018-06-13T16:32:22.388Z,1.40
2018-06-13T16:34:51.653Z,1.67
2018-06-13T16:37:20.933Z,2.10
2018-06-13T16:39:49.249Z,1.83
2018-06-13T16:42:17.597Z,1.70
2018-06-13T16:44:45.949Z,1.70
2018-06-13T16:47:15.265Z,2.67
2018-06-13T16:49:43.611Z,2.00
2018-06-13T16:52:23.157Z,2.30
2018-06-13T16:55:01.580Z,1.60
2018-06-13T16:57:29.950Z,2.10
2018-06-13T16:59:58.265Z,1.90
2018-06-13T17:02:26.665Z,2.07
2018-06-13T17:04:54.965Z,2.00
2018-06-13T17:07:23.272Z,2.07
2018-06-13T17:09:51.584Z,2.33
2018-06-13T17:12:19.981Z,2.50
2018-06-13T17:14:48.304Z,1.80
2018-06-13T17:17:16.621Z,1.73
2018-06-13T17:19:44.947Z,1.90
2018-06-13T17:22:13.277Z,1.70
2018-06-13T17:24:41.665Z,2.67
2018-06-13T17:27:10.016Z,1.70
2018-06-13T17:29:38.321Z,2.20
2018-06-13T17:32:06.633Z,2.00
2018-06-13T17:34:35.593Z,2.00
2018-06-13T17:37:04.037Z,1.70
2018-06-13T17:39:33.330Z,2.20
2018-06-13T17:42:02.802Z,2.30
2018-06-13T17:44:31.142Z,2.03
2018-06-13T17:46:59.556Z,2.10
2018-06-13T17:49:28.952Z,2.00
2018-06-13T17:51:57.360Z,2.20
2018-06-13T17:54:25.729Z,2.27
2018-06-13T17:56:54.293Z,3.27
2018-06-13T17:59:22.681Z,1.70
2018-06-13T18:01:51.027Z,1.83
2018-06-13T18:04:19.418Z,2.90
2018-06-13T18:06:47.785Z,2.60
2018-06-13T18:09:16.193Z,2.20
2018-06-13T18:11:44.601Z,1.93
2018-06-13T18:14:12.918Z,2.07
2018-06-13T18:16:41.360Z,2.40
2018-06-13T18:19:09.723Z,2.00
2018-06-13T18:21:38.094Z,2.67
2018-06-13T18:24:06.522Z,3.00
2018-06-13T18:26:35.030Z,3.07
2018-06-13T18:29:03.548Z,2.60
2018-06-13T18:31:31.889Z,2.83
2018-06-13T18:34:01.187Z,3.20
2018-06-13T18:36:29.500Z,2.93
2018-06-13T18:38:59.068Z,2.63
2018-06-13T18:41:28.001Z,2.50
2018-06-13T18:43:56.485Z,2.63
2018-06-13T18:46:24.857Z,2.30
